sensor_id;sensor_type;location;lat;lon;timestamp;pressure;altitude;pressure_sealevel;temperature;humidity
53889;BME280;41337;51.400;-2.342;2022-10-18T00:01:38;102072.25;;;7.09;100.00
53889;BME280;41337;51.400;-2.342;2022-10-18T00:06:39;102072.00;;;7.03;100.00
53889;BME280;41337;51.400;-2.342;2022-10-18T00:11:40;102068.63;;;7.04;100.00
53889;BME280;41337;51.400;-2.342;2022-10-18T00:16:41;102069.47;;;7.04;100.00
53889;BME280;41337;51.400;-2.342;2022-10-18T00:21:42;102064.97;;;6.98;100.00
53889;BME280;41337;51.400;-2.342;2022-10-18T00:26:43;102068.81;;;6.86;100.00
53889;BME280;41337;51.400;-2.342;2022-10-18T00:31:44;102078.19;;;6.82;100.00
53889;BME280;41337;51.400;-2.342;2022-10-18T00:36:45;102071.41;;;6.86;100.00
53889;BME280;41337;51.400;-2.342;2022-10-18T00:41:47;102067.28;;;6.91;100.00
53889;BME280;41337;51.400;-2.342;2022-10-18T00:46:48;102069.09;;;6.93;100.00
53889;BME280;41337;51.400;-2.342;2022-10-18T00:52:12;102074.91;;;6.88;100.00
53889;BME280;41337;51.400;-2.342;2022-10-18T00:57:14;102080.94;;;6.87;100.00
53889;BME280;41337;51.400;-2.342;2022-10-18T01:02:16;102078.53;;;6.69;100.00
53889;BME280;41337;51.400;-2.342;2022-10-18T01:07:30;102085.13;;;6.60;100.00
53889;BME280;41337;51.400;-2.342;2022-10-18T01:18:40;102078.19;;;6.59;100.00
53889;BME280;41337;51.400;-2.342;2022-10-18T01:34:18;102088.09;;;6.49;100.00
53889;BME280;41337;51.400;-2.342;2022-10-18T01:39:25;102103.56;;;6.47;100.00
53889;BME280;41337;51.400;-2.342;2022-10-18T01:44:36;102096.91;;;6.31;100.00
53889;BME280;41337;51.400;-2.342;2022-10-18T01:49:38;102093.69;;;6.16;100.00
53889;BME280;41337;51.400;-2.342;2022-10-18T01:54:45;102088.38;;;6.13;100.00
53889;BME280;41337;51.400;-2.342;2022-10-18T02:10:20;102107.50;;;5.95;100.00
53889;BME280;41337;51.400;-2.342;2022-10-18T02:15:29;102088.34;;;5.92;100.00
53889;BME280;41337;51.400;-2.342;2022-10-18T02:20:35;102094.50;;;5.94;100.00
53889;BME280;41337;51.400;-2.342;2022-10-18T02:25:36;102101.56;;;5.98;100.00
53889;BME280;41337;51.400;-2.342;2022-10-18T02:31:04;102089.22;;;6.12;100.00
53889;BME280;41337;51.400;-2.342;2022-10-18T02:36:13;102079.22;;;6.21;100.00
53889;BME280;41337;51.400;-2.342;2022-10-18T02:41:24;102105.22;;;6.24;100.00
53889;BME280;41337;51.400;-2.342;2022-10-18T02:46:26;102129.50;;;6.26;100.00
53889;BME280;41337;51.400;-2.342;2022-10-18T02:51:27;102143.78;;;6.18;100.00
53889;BME280;41337;51.400;-2.342;2022-10-18T02:56:28;102137.31;;;6.06;100.00
53889;BME280;41337;51.400;-2.342;2022-10-18T03:01:29;102112.13;;;6.02;100.00
53889;BME280;41337;51.400;-2.342;2022-10-18T03:06:35;102104.63;;;6.09;100.00
53889;BME280;41337;51.400;-2.342;2022-10-18T03:11:36;102095.47;;;6.17;100.00
53889;BME280;41337;51.400;-2.342;2022-10-18T03:16:37;102091.56;;;6.27;100.00
53889;BME280;41337;51.400;-2.342;2022-10-18T03:21:38;102095.41;;;6.36;100.00
53889;BME280;41337;51.400;-2.342;2022-10-18T03:26:38;102090.56;;;6.46;100.00
53889;BME280;41337;51.400;-2.342;2022-10-18T03:31:39;102101.03;;;6.49;100.00
53889;BME280;41337;51.400;-2.342;2022-10-18T03:36:40;102107.56;;;6.39;100.00
53889;BME280;41337;51.400;-2.342;2022-10-18T03:41:41;102102.31;;;6.37;100.00
53889;BME280;41337;51.400;-2.342;2022-10-18T03:46:42;102109.41;;;6.41;100.00
53889;BME280;41337;51.400;-2.342;2022-10-18T03:51:43;102116.91;;;6.35;100.00
53889;BME280;41337;51.400;-2.342;2022-10-18T03:56:43;102112.66;;;6.37;100.00
53889;BME280;41337;51.400;-2.342;2022-10-18T04:01:44;102107.75;;;6.43;100.00
53889;BME280;41337;51.400;-2.342;2022-10-18T04:06:45;102104.59;;;6.51;100.00
53889;BME280;41337;51.400;-2.342;2022-10-18T04:11:54;102102.41;;;6.61;100.00
53889;BME280;41337;51.400;-2.342;2022-10-18T04:16:55;102092.41;;;6.71;100.00
53889;BME280;41337;51.400;-2.342;2022-10-18T04:21:56;102108.84;;;6.71;100.00
53889;BME280;41337;51.400;-2.342;2022-10-18T04:26:56;102115.66;;;6.69;100.00
53889;BME280;41337;51.400;-2.342;2022-10-18T04:31:57;102110.38;;;6.66;100.00
53889;BME280;41337;51.400;-2.342;2022-10-18T04:36:58;102099.53;;;6.76;100.00
53889;BME280;41337;51.400;-2.342;2022-10-18T04:41:59;102107.66;;;6.86;100.00
53889;BME280;41337;51.400;-2.342;2022-10-18T04:47:00;102090.75;;;6.95;100.00
53889;BME280;41337;51.400;-2.342;2022-10-18T04:52:01;102081.69;;;7.07;100.00
53889;BME280;41337;51.400;-2.342;2022-10-18T04:57:02;102095.03;;;7.17;100.00
53889;BME280;41337;51.400;-2.342;2022-10-18T05:02:03;102099.63;;;7.25;100.00
53889;BME280;41337;51.400;-2.342;2022-10-18T05:07:10;102100.66;;;7.30;100.00
53889;BME280;41337;51.400;-2.342;2022-10-18T05:12:11;102098.38;;;7.38;100.00
53889;BME280;41337;51.400;-2.342;2022-10-18T05:17:11;102084.66;;;7.42;100.00
53889;BME280;41337;51.400;-2.342;2022-10-18T05:22:12;102094.38;;;7.47;100.00
53889;BME280;41337;51.400;-2.342;2022-10-18T05:27:13;102097.91;;;7.49;100.00
53889;BME280;41337;51.400;-2.342;2022-10-18T05:32:14;102098.78;;;7.50;100.00
53889;BME280;41337;51.400;-2.342;2022-10-18T05:37:15;102103.84;;;7.47;100.00
53889;BME280;41337;51.400;-2.342;2022-10-18T05:42:16;102103.09;;;7.49;100.00
53889;BME280;41337;51.400;-2.342;2022-10-18T05:47:17;102100.63;;;7.52;100.00
53889;BME280;41337;51.400;-2.342;2022-10-18T05:52:18;102098.06;;;7.54;100.00
53889;BME280;41337;51.400;-2.342;2022-10-18T05:57:19;102104.13;;;7.54;100.00
53889;BME280;41337;51.400;-2.342;2022-10-18T06:02:19;102111.91;;;7.54;100.00
53889;BME280;41337;51.400;-2.342;2022-10-18T06:07:20;102113.69;;;7.56;100.00
53889;BME280;41337;51.400;-2.342;2022-10-18T06:12:21;102112.66;;;7.50;100.00
53889;BME280;41337;51.400;-2.342;2022-10-18T06:17:22;102112.72;;;7.53;100.00
53889;BME280;41337;51.400;-2.342;2022-10-18T06:22:23;102103.25;;;7.54;100.00
53889;BME280;41337;51.400;-2.342;2022-10-18T06:27:24;102112.78;;;7.55;100.00
53889;BME280;41337;51.400;-2.342;2022-10-18T06:32:29;102109.38;;;7.56;100.00
53889;BME280;41337;51.400;-2.342;2022-10-18T06:37:30;102128.47;;;7.58;100.00
53889;BME280;41337;51.400;-2.342;2022-10-18T06:42:31;102127.53;;;7.56;100.00
53889;BME280;41337;51.400;-2.342;2022-10-18T06:47:32;102130.13;;;7.56;100.00
53889;BME280;41337;51.400;-2.342;2022-10-18T06:52:32;102130.25;;;7.59;100.00
53889;BME280;41337;51.400;-2.342;2022-10-18T06:57:33;102138.91;;;7.60;100.00
53889;BME280;41337;51.400;-2.342;2022-10-18T07:02:34;102137.97;;;7.58;100.00
53889;BME280;41337;51.400;-2.342;2022-10-18T07:07:36;102146.44;;;7.53;100.00
53889;BME280;41337;51.400;-2.342;2022-10-18T07:12:37;102147.25;;;7.51;100.00
53889;BME280;41337;51.400;-2.342;2022-10-18T07:17:38;102144.59;;;7.49;100.00
53889;BME280;41337;51.400;-2.342;2022-10-18T07:22:39;102150.72;;;7.51;100.00
53889;BME280;41337;51.400;-2.342;2022-10-18T07:27:41;102161.69;;;7.44;100.00
53889;BME280;41337;51.400;-2.342;2022-10-18T07:32:46;102165.09;;;7.43;100.00
53889;BME280;41337;51.400;-2.342;2022-10-18T07:37:47;102170.47;;;7.48;100.00
53889;BME280;41337;51.400;-2.342;2022-10-18T07:42:47;102177.50;;;7.50;100.00
53889;BME280;41337;51.400;-2.342;2022-10-18T07:47:54;102184.41;;;7.51;100.00
53889;BME280;41337;51.400;-2.342;2022-10-18T07:52:58;102190.53;;;7.53;100.00
53889;BME280;41337;51.400;-2.342;2022-10-18T07:57:59;102209.72;;;7.57;100.00
53889;BME280;41337;51.400;-2.342;2022-10-18T08:03:00;102201.25;;;7.63;100.00
53889;BME280;41337;51.400;-2.342;2022-10-18T08:08:01;102204.09;;;7.69;100.00
53889;BME280;41337;51.400;-2.342;2022-10-18T08:13:02;102213.97;;;7.79;100.00
53889;BME280;41337;51.400;-2.342;2022-10-18T08:18:03;102209.28;;;7.93;100.00
53889;BME280;41337;51.400;-2.342;2022-10-18T08:23:04;102209.53;;;8.01;100.00
53889;BME280;41337;51.400;-2.342;2022-10-18T08:28:05;102221.19;;;8.12;100.00
53889;BME280;41337;51.400;-2.342;2022-10-18T08:33:06;102227.84;;;8.30;100.00
53889;BME280;41337;51.400;-2.342;2022-10-18T08:38:07;102235.91;;;8.37;100.00
53889;BME280;41337;51.400;-2.342;2022-10-18T08:48:52;102246.25;;;8.36;100.00
53889;BME280;41337;51.400;-2.342;2022-10-18T08:59:09;102251.50;;;8.63;100.00
53889;BME280;41337;51.400;-2.342;2022-10-18T09:15:38;102251.41;;;9.42;100.00
53889;BME280;41337;51.400;-2.342;2022-10-18T09:21:22;102250.81;;;9.82;100.00
53889;BME280;41337;51.400;-2.342;2022-10-18T09:26:23;102256.97;;;10.16;100.00
53889;BME280;41337;51.400;-2.342;2022-10-18T09:36:36;102288.16;;;10.78;100.00
53889;BME280;41337;51.400;-2.342;2022-10-18T09:47:15;102296.22;;;10.88;100.00
53889;BME280;41337;51.400;-2.342;2022-10-18T09:52:24;102288.56;;;10.94;100.00
53889;BME280;41337;51.400;-2.342;2022-10-18T09:57:45;102284.69;;;11.14;100.00
53889;BME280;41337;51.400;-2.342;2022-10-18T10:02:48;102277.91;;;11.61;100.00
53889;BME280;41337;51.400;-2.342;2022-10-18T10:07:57;102295.63;;;12.18;100.00
53889;BME280;41337;51.400;-2.342;2022-10-18T10:13:23;102300.97;;;12.70;100.00
53889;BME280;41337;51.400;-2.342;2022-10-18T10:18:38;102307.19;;;13.33;100.00
53889;BME280;41337;51.400;-2.342;2022-10-18T10:23:53;102310.56;;;13.87;100.00
53889;BME280;41337;51.400;-2.342;2022-10-18T10:28:55;102320.72;;;14.36;100.00
53889;BME280;41337;51.400;-2.342;2022-10-18T10:39:10;102328.47;;;15.14;100.00
53889;BME280;41337;51.400;-2.342;2022-10-18T10:44:26;102310.28;;;15.40;100.00
53889;BME280;41337;51.400;-2.342;2022-10-18T10:54:35;102331.66;;;16.13;100.00
53889;BME280;41337;51.400;-2.342;2022-10-18T11:04:46;102337.94;;;16.74;100.00
53889;BME280;41337;51.400;-2.342;2022-10-18T11:21:22;102339.59;;;17.73;100.00
53889;BME280;41337;51.400;-2.342;2022-10-18T11:59:24;102302.88;;;18.97;100.00
53889;BME280;41337;51.400;-2.342;2022-10-18T12:04:33;102268.88;;;19.49;100.00
53889;BME280;41337;51.400;-2.342;2022-10-18T12:09:39;102272.09;;;19.77;100.00
53889;BME280;41337;51.400;-2.342;2022-10-18T12:20:14;102261.84;;;20.16;100.00
53889;BME280;41337;51.400;-2.342;2022-10-18T12:25:20;102253.75;;;20.25;100.00
53889;BME280;41337;51.400;-2.342;2022-10-18T12:41:46;102242.50;;;20.70;100.00
53889;BME280;41337;51.400;-2.342;2022-10-18T12:46:56;102232.50;;;20.86;100.00
53889;BME280;41337;51.400;-2.342;2022-10-18T12:52:17;102217.09;;;21.06;100.00
53889;BME280;41337;51.400;-2.342;2022-10-18T12:57:22;102220.66;;;21.05;100.00
53889;BME280;41337;51.400;-2.342;2022-10-18T13:02:25;102205.38;;;21.18;100.00
53889;BME280;41337;51.400;-2.342;2022-10-18T13:07:34;102201.34;;;21.42;96.42
53889;BME280;41337;51.400;-2.342;2022-10-18T13:13:04;102197.41;;;21.20;94.33
53889;BME280;41337;51.400;-2.342;2022-10-18T13:34:37;102192.75;;;21.31;97.01
53889;BME280;41337;51.400;-2.342;2022-10-18T13:39:41;102179.53;;;21.30;98.12
53889;BME280;41337;51.400;-2.342;2022-10-18T13:44:42;102172.22;;;21.83;84.97
53889;BME280;41337;51.400;-2.342;2022-10-18T14:11:06;102178.91;;;21.60;76.12
53889;BME280;41337;51.400;-2.342;2022-10-18T14:22:19;102167.59;;;21.08;77.94
53889;BME280;41337;51.400;-2.342;2022-10-18T14:27:30;102166.56;;;21.16;81.38
53889;BME280;41337;51.400;-2.342;2022-10-18T14:32:43;102159.56;;;21.13;79.47
53889;BME280;41337;51.400;-2.342;2022-10-18T14:37:55;102160.31;;;20.75;80.62
53889;BME280;41337;51.400;-2.342;2022-10-18T14:43:10;102165.69;;;20.15;85.18
53889;BME280;41337;51.400;-2.342;2022-10-18T14:48:32;102149.31;;;19.93;91.36
53889;BME280;41337;51.400;-2.342;2022-10-18T14:53:44;102158.47;;;19.68;93.09
53889;BME280;41337;51.400;-2.342;2022-10-18T14:58:45;102169.31;;;19.49;96.38
53889;BME280;41337;51.400;-2.342;2022-10-18T15:03:59;102181.91;;;19.29;98.47
53889;BME280;41337;51.400;-2.342;2022-10-18T15:09:02;102189.00;;;19.23;100.00
53889;BME280;41337;51.400;-2.342;2022-10-18T15:14:04;102188.19;;;19.20;99.06
53889;BME280;41337;51.400;-2.342;2022-10-18T15:24:39;102177.06;;;18.92;100.00
53889;BME280;41337;51.400;-2.342;2022-10-18T15:29:41;102183.22;;;18.91;100.00
53889;BME280;41337;51.400;-2.342;2022-10-18T15:34:43;102180.63;;;18.81;100.00
53889;BME280;41337;51.400;-2.342;2022-10-18T15:39:49;102186.84;;;18.77;100.00
53889;BME280;41337;51.400;-2.342;2022-10-18T15:45:29;102188.69;;;18.67;100.00
53889;BME280;41337;51.400;-2.342;2022-10-18T15:50:45;102180.16;;;18.39;100.00
53889;BME280;41337;51.400;-2.342;2022-10-18T16:01:41;102155.66;;;18.23;100.00
53889;BME280;41337;51.400;-2.342;2022-10-18T16:06:43;102167.25;;;18.04;100.00
53889;BME280;41337;51.400;-2.342;2022-10-18T16:11:44;102155.00;;;17.96;100.00
53889;BME280;41337;51.400;-2.342;2022-10-18T16:16:51;102158.66;;;17.68;100.00
53889;BME280;41337;51.400;-2.342;2022-10-18T16:21:53;102160.44;;;17.63;100.00
53889;BME280;41337;51.400;-2.342;2022-10-18T16:27:03;102159.69;;;17.34;100.00
53889;BME280;41337;51.400;-2.342;2022-10-18T16:32:08;102151.88;;;17.19;100.00
53889;BME280;41337;51.400;-2.342;2022-10-18T16:37:09;102151.91;;;17.06;100.00
53889;BME280;41337;51.400;-2.342;2022-10-18T16:42:10;102132.63;;;16.98;100.00
53889;BME280;41337;51.400;-2.342;2022-10-18T16:47:11;102140.53;;;16.77;100.00
53889;BME280;41337;51.400;-2.342;2022-10-18T16:52:12;102137.97;;;16.58;100.00
53889;BME280;41337;51.400;-2.342;2022-10-18T16:57:13;102137.09;;;16.45;100.00
53889;BME280;41337;51.400;-2.342;2022-10-18T17:02:13;102135.34;;;16.29;100.00
53889;BME280;41337;51.400;-2.342;2022-10-18T17:07:22;102134.47;;;16.13;100.00
53889;BME280;41337;51.400;-2.342;2022-10-18T17:12:23;102136.22;;;16.11;100.00
53889;BME280;41337;51.400;-2.342;2022-10-18T17:17:24;102137.97;;;16.03;100.00
53889;BME280;41337;51.400;-2.342;2022-10-18T17:22:25;102125.69;;;15.80;100.00
53889;BME280;41337;51.400;-2.342;2022-10-18T17:27:26;102134.41;;;15.70;100.00
53889;BME280;41337;51.400;-2.342;2022-10-18T17:32:31;102135.25;;;15.64;100.00
53889;BME280;41337;51.400;-2.342;2022-10-18T17:37:32;102137.00;;;15.59;100.00
53889;BME280;41337;51.400;-2.342;2022-10-18T17:42:33;102132.59;;;15.53;100.00
53889;BME280;41337;51.400;-2.342;2022-10-18T17:47:34;102143.94;;;15.43;100.00
53889;BME280;41337;51.400;-2.342;2022-10-18T17:52:39;102152.66;;;15.34;100.00
53889;BME280;41337;51.400;-2.342;2022-10-18T17:57:42;102156.16;;;15.27;100.00
53889;BME280;41337;51.400;-2.342;2022-10-18T18:02:43;102160.50;;;15.27;100.00
53889;BME280;41337;51.400;-2.342;2022-10-18T18:07:46;102170.09;;;15.20;100.00
53889;BME280;41337;51.400;-2.342;2022-10-18T18:12:47;102164.84;;;15.12;100.00
53889;BME280;41337;51.400;-2.342;2022-10-18T18:17:48;102176.16;;;15.07;100.00
53889;BME280;41337;51.400;-2.342;2022-10-18T18:22:55;102168.28;;;15.05;100.00
53889;BME280;41337;51.400;-2.342;2022-10-18T18:27:56;102176.13;;;14.96;100.00
53889;BME280;41337;51.400;-2.342;2022-10-18T18:32:57;102172.59;;;14.94;100.00
53889;BME280;41337;51.400;-2.342;2022-10-18T18:37:58;102162.06;;;14.91;100.00
53889;BME280;41337;51.400;-2.342;2022-10-18T18:42:58;102172.56;;;14.91;100.00
53889;BME280;41337;51.400;-2.342;2022-10-18T18:47:59;102169.97;;;14.88;100.00
53889;BME280;41337;51.400;-2.342;2022-10-18T18:53:00;102172.59;;;14.88;100.00
53889;BME280;41337;51.400;-2.342;2022-10-18T18:58:01;102146.34;;;14.86;100.00
53889;BME280;41337;51.400;-2.342;2022-10-18T19:03:02;102144.56;;;14.86;100.00
53889;BME280;41337;51.400;-2.342;2022-10-18T19:08:03;102141.91;;;14.82;100.00
53889;BME280;41337;51.400;-2.342;2022-10-18T19:13:07;102131.34;;;14.73;100.00
53889;BME280;41337;51.400;-2.342;2022-10-18T19:18:08;102126.09;;;14.71;100.00
53889;BME280;41337;51.400;-2.342;2022-10-18T19:23:09;102133.97;;;14.68;100.00
53889;BME280;41337;51.400;-2.342;2022-10-18T19:28:10;102125.19;;;14.63;100.00
53889;BME280;41337;51.400;-2.342;2022-10-18T19:33:10;102113.84;;;14.65;100.00
53889;BME280;41337;51.400;-2.342;2022-10-18T19:38:15;102107.75;;;14.66;100.00
53889;BME280;41337;51.400;-2.342;2022-10-18T19:43:20;102099.84;;;14.62;100.00
53889;BME280;41337;51.400;-2.342;2022-10-18T19:48:21;102106.75;;;14.57;100.00
53889;BME280;41337;51.400;-2.342;2022-10-18T19:53:22;102102.38;;;14.57;100.00
53889;BME280;41337;51.400;-2.342;2022-10-18T19:58:23;102093.66;;;14.57;100.00
53889;BME280;41337;51.400;-2.342;2022-10-18T20:03:24;102097.06;;;14.46;100.00
53889;BME280;41337;51.400;-2.342;2022-10-18T20:08:27;102093.50;;;14.38;100.00
53889;BME280;41337;51.400;-2.342;2022-10-18T20:13:31;102092.63;;;14.36;100.00
53889;BME280;41337;51.400;-2.342;2022-10-18T20:18:32;102101.41;;;14.43;100.00
53889;BME280;41337;51.400;-2.342;2022-10-18T20:23:37;102099.69;;;14.42;100.00
53889;BME280;41337;51.400;-2.342;2022-10-18T20:28:41;102085.72;;;14.47;100.00
53889;BME280;41337;51.400;-2.342;2022-10-18T20:33:43;102086.56;;;14.46;100.00
53889;BME280;41337;51.400;-2.342;2022-10-18T20:38:45;102094.41;;;14.43;100.00
53889;BME280;41337;51.400;-2.342;2022-10-18T20:43:58;102089.19;;;14.42;100.00
53889;BME280;41337;51.400;-2.342;2022-10-18T20:49:02;102088.25;;;14.35;100.00
53889;BME280;41337;51.400;-2.342;2022-10-18T20:54:05;102095.22;;;14.33;100.00
53889;BME280;41337;51.400;-2.342;2022-10-18T20:59:07;102083.81;;;14.26;100.00
53889;BME280;41337;51.400;-2.342;2022-10-18T21:04:14;102082.06;;;14.25;100.00
53889;BME280;41337;51.400;-2.342;2022-10-18T21:09:17;102094.34;;;14.31;100.00
53889;BME280;41337;51.400;-2.342;2022-10-18T21:14:23;102096.13;;;14.32;100.00
53889;BME280;41337;51.400;-2.342;2022-10-18T21:19:25;102076.00;;;14.31;100.00
53889;BME280;41337;51.400;-2.342;2022-10-18T21:24:26;102069.00;;;14.30;100.00
53889;BME280;41337;51.400;-2.342;2022-10-18T21:29:27;102068.16;;;14.36;100.00
53889;BME280;41337;51.400;-2.342;2022-10-18T21:34:30;102069.00;;;14.33;100.00
53889;BME280;41337;51.400;-2.342;2022-10-18T21:39:34;102065.53;;;14.34;100.00
53889;BME280;41337;51.400;-2.342;2022-10-18T21:44:35;102076.03;;;14.34;100.00
53889;BME280;41337;51.400;-2.342;2022-10-18T21:49:37;102077.78;;;14.40;100.00
53889;BME280;41337;51.400;-2.342;2022-10-18T21:54:38;102082.16;;;14.39;100.00
53889;BME280;41337;51.400;-2.342;2022-10-18T21:59:38;102080.44;;;14.41;100.00
53889;BME280;41337;51.400;-2.342;2022-10-18T22:04:39;102078.66;;;14.37;100.00
53889;BME280;41337;51.400;-2.342;2022-10-18T22:09:40;102085.63;;;14.37;100.00
53889;BME280;41337;51.400;-2.342;2022-10-18T22:14:41;102082.13;;;14.35;100.00
53889;BME280;41337;51.400;-2.342;2022-10-18T22:19:42;102066.41;;;14.36;100.00
53889;BME280;41337;51.400;-2.342;2022-10-18T22:24:43;102059.41;;;14.35;100.00
53889;BME280;41337;51.400;-2.342;2022-10-18T22:29:44;102061.09;;;14.28;100.00
53889;BME280;41337;51.400;-2.342;2022-10-18T22:34:48;102052.47;;;14.39;100.00
53889;BME280;41337;51.400;-2.342;2022-10-18T22:39:49;102054.16;;;14.29;100.00
53889;BME280;41337;51.400;-2.342;2022-10-18T22:44:50;102048.91;;;14.30;100.00
53889;BME280;41337;51.400;-2.342;2022-10-18T22:49:51;102050.63;;;14.27;100.00
53889;BME280;41337;51.400;-2.342;2022-10-18T22:54:52;102040.13;;;14.24;100.00
53889;BME280;41337;51.400;-2.342;2022-10-18T22:59:53;102012.97;;;14.17;100.00
53889;BME280;41337;51.400;-2.342;2022-10-18T23:04:54;102010.38;;;14.14;100.00
53889;BME280;41337;51.400;-2.342;2022-10-18T23:09:54;102017.28;;;14.07;100.00
53889;BME280;41337;51.400;-2.342;2022-10-18T23:14:55;102024.22;;;14.02;100.00
53889;BME280;41337;51.400;-2.342;2022-10-18T23:19:56;102024.25;;;14.04;100.00
53889;BME280;41337;51.400;-2.342;2022-10-18T23:24:57;102002.44;;;14.05;100.00
53889;BME280;41337;51.400;-2.342;2022-10-18T23:29:57;101992.75;;;13.99;100.00
53889;BME280;41337;51.400;-2.342;2022-10-18T23:34:58;101982.28;;;14.01;100.00
53889;BME280;41337;51.400;-2.342;2022-10-18T23:39:59;101969.25;;;14.10;100.00
53889;BME280;41337;51.400;-2.342;2022-10-18T23:45:00;101963.94;;;13.99;100.00
53889;BME280;41337;51.400;-2.342;2022-10-18T23:50:01;101957.84;;;13.99;100.00
53889;BME280;41337;51.400;-2.342;2022-10-18T23:55:27;101954.28;;;13.90;100.00
